< < Back
Terminal Aerodrome Forecast


Current Version              Previous Versions:   1  2  3  4  5  6  7  8  9  

Terminal Aerodrome Forecast

716
FTUS42 KFFC 051502 AAA
TAFCSG
TAF AMD
KCSG 051502Z 0515/0612 21004KT P6SM VCSH BKN008 OVC025
      TEMPO 0515/0519 4SM -TSRA BKN025CB
     FM051900 22009G14KT P6SM VCSH BKN050
     FM060200 25003KT P6SM BKN040=

Latest METAR

882
SAUS70 KWBC 052300
MTRCSG
METAR KCSG 052251Z 25008KT 10SM FEW026 27/21 A3008 RMK AO2 SLP181
T02720206 $


USA.gov is the U.S. government's official web portal to all federal, state and local government web resources and services.